Time;durP1;ratioP1;P1;durP2;ratioP2;P2;SDS_P1;SDS_P2;PMS_P1;PMS_P2;Temp;Humidity;BMP_temperature;BMP_pressure;BME280_temperature;BME280_humidity;BME280_pressure;Samples;Min_cycle;Max_cycle;Signal;HPM_P1;HPM_P2
2022/06/01 00:01:15;;;;;;;1.97;1.87;;;;;;;14.53;87.20;100372.63;5160637;57;1139000;-73
2022/06/01 00:06:21;;;;;;;1.47;1.37;;;;;;;14.49;86.76;100365.45;5132590;57;1138968;-73
2022/06/01 00:11:27;;;;;;;4.83;1.67;;;;;;;14.45;86.21;100364.55;5076946;57;1138996;-73
2022/06/01 00:16:33;;;;;;;2.30;2.07;;;;;;;14.38;86.21;100366.42;5138635;56;1139161;-73
2022/06/01 00:22:11;;;;;;;2.53;1.97;;;;;;;14.35;86.33;100361.42;5247307;56;1139014;-73
2022/06/01 00:26:46;;;;;;;1.57;1.47;;;;;;;14.24;85.71;100353.61;5125322;56;1138967;-73
2022/06/01 00:31:51;;;;;;;2.50;1.90;;;;;;;14.14;85.86;100350.66;5112065;56;1139129;-73
2022/06/01 00:36:57;;;;;;;2.50;2.03;;;;;;;14.14;85.76;100358.14;5247343;56;1138994;-73
2022/06/01 00:42:19;;;;;;;1.93;1.83;;;;;;;14.01;85.47;100343.84;5247170;56;1138995;-74
2022/06/01 00:47:27;;;;;;;2.57;2.27;;;;;;;13.91;85.98;100323.56;5160509;57;1138995;-73
2022/06/01 00:52:37;;;;;;;1.83;1.70;;;;;;;13.87;86.46;100316.89;5160598;57;1139256;-73
2022/06/01 00:57:45;;;;;;;2.10;1.80;;;;;;;13.83;86.85;100294.23;5208985;56;1139228;-73
2022/06/01 01:02:55;;;;;;;3.73;2.30;;;;;;;13.85;86.67;100306.89;5213431;56;1138871;-73
2022/06/01 01:08:05;;;;;;;2.20;2.10;;;;;;;13.94;86.94;100317.97;5160434;57;1138995;-72
2022/06/01 01:13:14;;;;;;;2.27;2.10;;;;;;;13.98;87.04;100326.01;5160518;57;1138967;-73
2022/06/01 01:18:35;;;;;;;3.70;2.30;;;;;;;14.00;86.83;100314.73;5160504;56;1136899;-71
2022/06/01 01:23:49;;;;;;;3.00;1.93;;;;;;;14.00;86.36;100312.08;5228382;56;1137404;-71
2022/06/01 01:28:56;;;;;;;2.57;2.37;;;;;;;14.00;85.99;100322.72;5095741;57;1136863;-71
2022/06/01 01:34:01;;;;;;;2.53;2.17;;;;;;;14.02;86.25;100319.42;5201219;56;1137460;-71
2022/06/01 01:39:14;;;;;;;2.87;2.30;;;;;;;14.07;86.41;100313.99;5251853;56;1136787;-71
2022/06/01 01:44:38;;;;;;;;;;;;;;;14.06;85.90;100301.67;5216319;56;1136915;-71
2022/06/01 01:49:44;;;;;;;3.53;2.43;;;;;;;14.00;85.71;100306.77;5168210;57;974250;-71
2022/06/01 01:55:12;;;;;;;4.93;2.20;;;;;;;13.96;85.57;100298.72;5238430;56;1135039;-71
2022/06/01 02:00:24;;;;;;;2.77;2.30;;;;;;;13.92;85.87;100299.98;5187623;56;1138872;-71
2022/06/01 02:16:51;;;;;;;2.20;2.10;;;;;;;13.88;86.03;100295.48;5114671;57;1139024;-71
2022/06/01 02:21:59;;;;;;;2.87;2.40;;;;;;;13.89;86.39;100298.98;5150438;57;1138984;-71
2022/06/01 02:27:05;;;;;;;2.17;2.00;;;;;;;13.87;86.21;100297.79;5152215;57;1139216;-71
2022/06/01 02:32:12;;;;;;;2.07;1.97;;;;;;;13.84;86.44;100304.72;5103056;57;1139047;-71
2022/06/01 02:37:20;;;;;;;2.63;2.43;;;;;;;13.77;86.98;100314.73;5076259;57;1139307;-71
2022/06/01 02:42:26;;;;;;;3.00;2.50;;;;;;;13.66;86.93;100316.59;5082290;57;1139521;-71
2022/06/01 02:47:38;;;;;;;3.20;2.93;;;;;;;13.61;87.13;100319.31;5160328;57;1138920;-71
2022/06/01 02:52:44;;;;;;;6.77;4.00;;;;;;;13.57;87.81;100316.13;5160033;57;1138952;-71
2022/06/01 02:57:53;;;;;;;5.07;3.73;;;;;;;13.57;87.83;100313.47;5160036;57;1138972;-70
2022/06/01 03:03:01;;;;;;;6.87;2.90;;;;;;;13.60;88.18;100312.33;5160265;57;1139015;-71
2022/06/01 03:08:08;;;;;;;3.37;2.23;;;;;;;13.49;90.21;100349.20;5155317;57;1138981;-71
2022/06/01 03:13:14;;;;;;;4.80;3.27;;;;;;;13.13;90.02;100345.92;5151204;57;1139032;-70
2022/06/01 03:18:21;;;;;;;3.33;2.90;;;;;;;12.94;90.11;100347.58;5168124;56;1138466;-71
2022/06/01 03:23:28;;;;;;;6.40;2.60;;;;;;;12.88;90.88;100356.08;5159430;57;1138951;-71
2022/06/01 03:28:34;;;;;;;6.63;5.50;;;;;;;12.90;90.88;100348.83;4985145;58;1139057;-71
2022/06/01 03:33:40;;;;;;;7.50;2.50;;;;;;;12.96;91.10;100336.34;5089170;57;1139009;-71
2022/06/01 03:38:46;;;;;;;7.70;4.17;;;;;;;13.17;91.19;100329.58;5162143;57;1139284;-71
2022/06/01 03:49:17;;;;;;;4.00;3.70;;;;;;;13.35;91.18;100330.55;5078513;58;1139478;-70
2022/06/01 03:54:23;;;;;;;6.23;4.30;;;;;;;13.47;91.37;100324.59;5121138;57;1136872;-71
2022/06/01 03:59:29;;;;;;;8.03;3.17;;;;;;;13.52;90.79;100313.55;5133399;57;1137033;-71
2022/06/01 04:04:36;;;;;;;3.83;3.30;;;;;;;13.54;90.44;100311.09;5133722;57;1136982;-71
2022/06/01 04:09:42;;;;;;;5.43;3.30;;;;;;;13.59;90.75;100318.65;5133941;57;1137271;-71
2022/06/01 04:14:48;;;;;;;6.20;3.63;;;;;;;13.61;91.02;100313.52;5135656;56;1136986;-71
2022/06/01 04:19:54;;;;;;;6.20;4.30;;;;;;;13.62;90.99;100315.67;5124236;56;1136963;-71
2022/06/01 04:25:01;;;;;;;6.13;4.20;;;;;;;13.58;91.15;100300.53;5136362;57;1137219;-72
2022/06/01 04:30:10;;;;;;;10.83;3.77;;;;;;;13.51;91.43;100318.02;5149670;56;1137099;-71
2022/06/01 04:35:18;;;;;;;4.63;3.50;;;;;;;13.57;91.80;100316.13;5149514;56;1138331;-71
2022/06/01 04:40:24;;;;;;;8.03;5.37;;;;;;;13.45;91.72;100309.77;5063409;58;1136924;-71
2022/06/01 04:45:31;;;;;;;6.60;5.10;;;;;;;13.26;92.33;100298.21;5123883;57;1134869;-71
2022/06/01 04:50:47;;;;;;;9.40;4.70;;;;;;;13.16;93.07;100297.85;5162106;56;1135024;-71
2022/06/01 04:55:50;;;;;;;5.72;5.05;;;;;;;13.28;95.22;100283.47;5158422;57;1138914;-71
2022/06/01 05:00:56;;;;;;;9.67;4.77;;;;;;;13.33;95.16;100282.53;5158157;57;1138953;-72
2022/06/01 05:06:02;;;;;;;6.53;4.20;;;;;;;13.47;95.48;100284.73;5141663;57;1139068;-71
2022/06/01 05:11:08;;;;;;;5.70;5.07;;;;;;;13.62;95.42;100285.95;5141651;57;1139194;-71
2022/06/01 05:16:14;;;;;;;6.27;5.10;;;;;;;13.82;96.39;100277.93;5152406;56;1139018;-72
2022/06/01 05:21:20;;;;;;;9.10;5.63;;;;;;;13.87;96.28;100267.70;5249484;56;1139012;-72
2022/06/01 05:26:26;;;;;;;6.67;4.97;;;;;;;14.00;96.77;100265.05;5173799;56;1139242;-72
2022/06/01 05:31:31;;;;;;;9.33;5.70;;;;;;;14.02;96.21;100263.09;5125032;57;1139077;-73
2022/06/01 05:36:37;;;;;;;8.87;6.30;;;;;;;14.02;96.27;100275.55;5127104;56;1139046;-73
2022/06/01 05:41:44;;;;;;;7.20;5.87;;;;;;;14.12;96.73;100272.83;5155680;56;1138994;-73
2022/06/01 05:46:59;;;;;;;7.67;5.17;;;;;;;14.29;95.81;100282.69;5162747;56;1139018;-73
2022/06/01 05:52:05;;;;;;;7.80;5.80;;;;;;;14.45;95.74;100285.56;5087718;57;1139027;-75
2022/06/01 05:57:11;;;;;;;6.90;5.50;;;;;;;14.47;95.47;100285.42;5107678;57;1139126;-74
2022/06/01 06:02:17;;;;;;;5.70;4.80;;;;;;;14.43;95.56;100283.05;5121039;57;1138991;-73
2022/06/01 06:07:23;;;;;;;5.73;5.13;;;;;;;14.37;95.40;100289.41;5151357;57;1139169;-74
2022/06/01 06:12:28;;;;;;;6.10;5.37;;;;;;;14.36;96.67;100285.11;5151474;57;1139018;-74
2022/06/01 06:17:34;;;;;;;6.67;5.33;;;;;;;14.54;97.49;100281.16;5108455;57;1139252;-73
2022/06/01 06:22:40;;;;;;;5.07;4.57;;;;;;;14.55;97.08;100290.81;5076312;58;1139131;-74
2022/06/01 06:27:46;;;;;;;6.40;4.90;;;;;;;14.54;96.62;100297.95;5150456;57;1139271;-73
2022/06/01 06:32:53;;;;;;;5.50;4.87;;;;;;;14.52;96.78;100292.44;5126363;57;1139015;-73
2022/06/01 06:37:59;;;;;;;5.33;4.70;;;;;;;14.59;96.51;100293.53;5137260;57;1139032;-73
2022/06/01 06:43:06;;;;;;;10.37;5.07;;;;;;;14.67;96.96;100293.59;5157682;57;1139095;-74
2022/06/01 06:48:12;;;;;;;5.40;4.90;;;;;;;14.70;96.25;100302.63;5156994;56;1141151;-74
2022/06/01 06:53:20;;;;;;;6.45;5.53;;;;;;;14.72;95.63;100307.30;5151246;56;1138904;-74
2022/06/01 06:58:26;;;;;;;5.13;4.73;;;;;;;14.88;96.01;100310.12;5151261;56;1139017;-73
2022/06/01 07:03:32;;;;;;;6.03;5.10;;;;;;;15.02;94.38;100301.61;5151265;56;1138957;-73
2022/06/01 07:08:40;;;;;;;8.97;4.97;;;;;;;15.17;93.81;100321.05;5151220;56;1138969;-73
2022/06/01 07:13:48;;;;;;;4.63;4.23;;;;;;;15.33;93.68;100327.34;5137980;56;1139043;-73
2022/06/01 07:18:56;;;;;;;3.53;3.23;;;;;;;15.52;93.58;100326.34;5151489;56;1139078;-73
2022/06/01 07:24:01;;;;;;;5.67;4.13;;;;;;;15.65;91.75;100321.95;5163050;56;1139020;-73
2022/06/01 07:29:10;;;;;;;4.47;3.77;;;;;;;15.69;90.60;100317.99;5151115;57;1139117;-73
2022/06/01 07:34:18;;;;;;;3.63;3.33;;;;;;;15.85;92.46;100315.42;5054476;58;1138980;-73
2022/06/01 07:44:49;;;;;;;;;;;;;;;16.27;88.16;100323.97;5168706;56;1136959;-73
2022/06/01 07:49:56;;;;;;;7.33;4.70;;;;;;;16.31;87.47;100322.66;5154542;57;974243;-73
2022/06/01 07:55:02;;;;;;;5.70;3.60;;;;;;;16.13;86.82;100322.74;5203374;56;1134974;-73
2022/06/01 08:00:11;;;;;;;3.50;3.30;;;;;;;16.08;88.16;100322.37;5206641;56;1136947;-73
2022/06/01 08:05:21;;;;;;;8.20;3.60;;;;;;;16.36;89.97;100315.82;5164689;56;1136950;-74
2022/06/01 08:10:27;;;;;;;3.80;3.50;;;;;;;16.39;86.97;100321.34;5151609;57;1136969;-74
2022/06/01 08:15:36;;;;;;;7.17;3.03;;;;;;;16.21;86.25;100326.77;5151818;57;1136964;-73
2022/06/01 08:20:43;;;;;;;3.33;3.13;;;;;;;16.01;86.13;100348.03;5147850;57;1137031;-73
2022/06/01 08:25:50;;;;;;;3.07;2.87;;;;;;;15.82;85.08;100339.24;5153255;56;1137084;-73
2022/06/01 08:30:56;;;;;;;3.00;2.80;;;;;;;15.79;86.62;100344.88;5164069;56;1136879;-73
2022/06/01 08:36:02;;;;;;;5.23;2.90;;;;;;;16.09;86.66;100335.55;5163965;56;1136913;-73
2022/06/01 08:41:11;;;;;;;2.97;2.67;;;;;;;16.13;85.06;100347.59;5164587;56;1136511;-72
2022/06/01 08:46:18;;;;;;;6.73;3.57;;;;;;;16.07;85.43;100347.38;5237344;56;1136957;-73
2022/06/01 08:51:29;;;;;;;5.80;3.57;;;;;;;15.97;84.89;100359.50;5250911;56;1134999;-73
2022/06/01 08:56:45;;;;;;;5.13;3.07;;;;;;;15.93;85.68;100357.30;5251051;56;1138882;-73
2022/06/01 09:02:45;;;;;;;3.60;3.30;;;;;;;16.03;88.91;100353.55;5250903;56;1138830;-73
2022/06/01 09:07:59;;;;;;;5.33;3.93;;;;;;;16.28;86.99;100350.99;5250664;56;1138950;-73
2022/06/01 09:13:19;;;;;;;4.20;3.47;;;;;;;16.54;85.46;100345.92;5250872;56;1138952;-74
2022/06/01 09:18:28;;;;;;;4.37;3.97;;;;;;;16.58;84.98;100354.45;5186940;56;1139300;-73
2022/06/01 09:23:33;;;;;;;4.90;4.60;;;;;;;16.51;83.85;100356.92;5164020;56;1138971;-73
2022/06/01 09:28:40;;;;;;;5.87;4.60;;;;;;;16.68;80.97;100366.36;5157207;57;1139079;-73
2022/06/01 09:33:49;;;;;;;6.00;3.67;;;;;;;16.88;78.45;100355.24;5151610;56;1139032;-73
2022/06/01 09:39:03;;;;;;;4.17;3.77;;;;;;;17.15;79.24;100354.61;5151504;56;1138977;-73
2022/06/01 09:44:17;;;;;;;5.48;4.98;;;;;;;17.13;74.05;100358.78;5187664;56;1138993;-73
2022/06/01 09:49:33;;;;;;;2.93;2.77;;;;;;;16.99;75.44;100366.61;5237810;56;1138918;-74
2022/06/01 09:54:45;;;;;;;5.07;4.67;;;;;;;17.36;74.71;100368.84;5237814;56;1139225;-74
2022/06/01 10:11:08;;;;;;;2.20;2.10;;;;;;;17.44;68.29;100380.36;5237734;56;1136945;-74
2022/06/01 10:16:39;;;;;;;1.73;1.70;;;;;;;17.59;66.05;100381.36;5206112;56;1136833;-74
2022/06/01 10:21:55;;;;;;;2.47;2.17;;;;;;;17.84;67.45;100390.77;5150134;57;1134789;-74
2022/06/01 10:27:01;;;;;;;2.20;2.10;;;;;;;17.93;66.12;100391.07;5152147;56;1145906;-73
2022/06/01 10:32:12;;;;;;;2.20;2.00;;;;;;;18.15;66.59;100398.91;5162856;56;1139058;-73
2022/06/01 10:37:34;;;;;;;5.90;2.60;;;;;;;18.07;66.33;100399.74;5183172;56;1138964;-74
2022/06/01 10:43:17;;;;;;;1.57;1.53;;;;;;;18.30;65.78;100389.67;5164307;56;1138969;-74
2022/06/01 10:48:33;;;;;;;2.00;1.90;;;;;;;18.45;64.65;100374.55;5163463;56;1138874;-72
2022/06/01 10:54:06;;;;;;;1.80;1.70;;;;;;;18.55;60.99;100380.02;5118584;57;1138994;-71
2022/06/01 10:59:16;;;;;;;1.30;1.30;;;;;;;18.60;62.25;100382.22;5079742;58;1138985;-74
2022/06/01 11:04:47;;;;;;;1.00;1.00;;;;;;;18.92;60.91;100380.72;5163512;57;1139002;-74
2022/06/01 11:10:32;;;;;;;9.17;1.33;;;;;;;19.30;61.97;100378.95;5073908;58;1138996;-73
2022/06/01 11:15:51;;;;;;;1.72;1.27;;;;;;;19.47;56.71;100386.37;5078759;58;1137016;-74
2022/06/01 11:21:18;;;;;;;3.58;1.42;;;;;;;19.31;57.97;100378.45;5164286;56;1136992;-73
2022/06/01 11:26:43;;;;;;;1.00;1.00;;;;;;;19.37;55.66;100370.20;5167836;56;1136929;-73
2022/06/01 11:31:52;;;;;;;2.85;1.40;;;;;;;19.43;59.18;100376.17;5206987;56;1136827;-73
2022/06/01 11:37:08;;;;;;;1.67;1.40;;;;;;;19.72;59.69;100368.23;5157259;57;1135075;-73
2022/06/01 11:42:30;;;;;;;1.17;1.00;;;;;;;19.95;55.58;100378.94;5159396;56;1138901;-70
2022/06/01 11:47:46;;;;;;;1.42;1.05;;;;;;;19.91;54.39;100373.60;5163781;56;1138963;-69
2022/06/01 11:53:02;;;;;;;1.45;1.22;;;;;;;19.94;52.78;100375.92;5163245;57;1139035;-71
2022/06/01 11:58:21;;;;;;;1.65;1.30;;;;;;;19.81;53.79;100375.72;5224922;56;1138966;-70
2022/06/01 12:03:35;;;;;;;1.35;1.25;;;;;;;19.79;53.78;100372.38;5249816;56;1138995;-71
2022/06/01 12:08:56;;;;;;;1.52;0.90;;;;;;;19.68;53.42;100363.44;5249688;56;1138980;-71
2022/06/01 12:14:02;;;;;;;1.93;1.10;;;;;;;19.68;53.70;100370.98;5250229;56;1138878;-73
2022/06/01 12:19:21;;;;;;;6.92;1.20;;;;;;;19.90;51.70;100372.77;5194350;56;1139002;-72
2022/06/01 12:30:20;;;;;;;1.85;1.00;;;;;;;20.08;50.40;100387.19;5163056;57;1138992;-72
2022/06/01 12:35:32;;;;;;;0.90;0.90;;;;;;;19.99;51.69;100367.66;5242766;56;1138999;-73
2022/06/01 12:40:38;;;;;;;1.70;0.93;;;;;;;20.17;51.03;100375.33;5250079;56;1137208;-73
2022/06/01 12:45:45;;;;;;;3.10;1.77;;;;;;;20.09;51.75;100372.75;5249762;56;1136963;-73
2022/06/01 12:50:58;;;;;;;1.75;1.02;;;;;;;19.83;50.75;100377.22;5249713;56;1136980;-74
2022/06/01 12:56:19;;;;;;;2.70;1.40;;;;;;;19.57;52.54;100381.62;5249651;56;1137068;-73
2022/06/01 13:01:32;;;;;;;3.63;2.60;;;;;;;19.42;53.74;100399.98;5250061;56;1137162;-73
2022/06/01 13:06:40;;;;;;;2.25;1.90;;;;;;;19.39;54.13;100399.86;5249765;56;1136946;-73
2022/06/01 13:11:49;;;;;;;6.87;2.08;;;;;;;19.32;54.06;100402.41;5249514;56;1136407;-72
2022/06/01 13:16:58;;;;;;;2.60;1.60;;;;;;;19.31;55.68;100395.38;5250349;56;1136909;-73
2022/06/01 13:22:17;;;;;;;4.70;1.85;;;;;;;19.40;55.62;100393.98;5250709;56;1136902;-73
2022/06/01 13:27:23;;;;;;;2.10;1.72;;;;;;;19.45;54.21;100413.87;5179685;56;1134852;-72
2022/06/01 13:32:36;;;;;;;1.07;1.00;;;;;;;19.18;57.51;100403.68;5191378;56;1138822;-72
2022/06/01 13:37:45;;;;;;;14.07;8.03;;;;;;;18.94;56.28;100400.11;5243852;56;1139109;-72
2022/06/01 13:43:01;;;;;;;1.40;1.20;;;;;;;18.84;56.46;100398.67;5239766;56;1141052;-73
2022/06/01 13:48:16;;;;;;;1.05;0.98;;;;;;;18.85;54.97;100393.14;5165125;56;1138952;-73
2022/06/01 13:53:46;;;;;;;9.85;2.02;;;;;;;18.86;54.28;100384.60;5162729;56;1139175;-73
2022/06/01 13:59:07;;;;;;;6.90;0.90;;;;;;;18.91;54.85;100391.62;5237303;56;1138869;-73
2022/06/01 14:04:37;;;;;;;9.00;1.90;;;;;;;19.29;55.67;100393.37;5249432;56;1139184;-73
2022/06/01 14:09:56;;;;;;;6.25;0.85;;;;;;;19.53;53.77;100391.56;5212310;56;1139008;-73
2022/06/01 14:15:02;;;;;;;2.95;1.35;;;;;;;19.44;54.45;100418.91;5158777;56;1139173;-73
2022/06/01 14:20:09;;;;;;;4.35;1.05;;;;;;;19.19;55.24;100417.42;5130228;56;1139129;-73
2022/06/01 14:30:39;;;;;;;0.70;0.70;;;;;;;19.08;56.24;100424.53;5127930;56;1138946;-73
2022/06/01 14:35:45;;;;;;;0.80;0.80;;;;;;;19.12;55.85;100430.68;5087063;57;1139234;-73
2022/06/01 14:40:51;;;;;;;3.00;0.72;;;;;;;19.22;56.51;100421.92;5102485;57;1138947;-73
2022/06/01 14:45:56;;;;;;;1.57;1.05;;;;;;;19.39;56.23;100419.97;5070606;57;1138989;-73
2022/06/01 14:51:07;;;;;;;0.62;0.62;;;;;;;19.42;55.61;100422.78;5120277;57;1138995;-72
2022/06/01 14:56:13;;;;;;;0.70;0.70;;;;;;;19.42;55.92;100420.09;5134899;57;1136915;-70
2022/06/01 15:01:23;;;;;;;0.57;0.57;;;;;;;19.41;55.66;100423.28;5046226;58;1137126;-71
2022/06/01 15:06:29;;;;;;;1.90;0.80;;;;;;;19.36;55.68;100417.64;5061169;57;1137117;-73
2022/06/01 15:11:35;;;;;;;1.17;0.82;;;;;;;19.40;55.84;100412.77;4990906;58;1136987;-73
2022/06/01 15:16:44;;;;;;;1.32;1.27;;;;;;;19.41;56.30;100407.19;5085858;57;1137064;-72
2022/06/01 15:21:51;;;;;;;0.90;0.90;;;;;;;19.39;54.49;100421.82;5066095;57;1136890;-73
2022/06/01 15:26:59;;;;;;;3.17;0.85;;;;;;;19.31;54.55;100418.67;5102898;57;1136776;-73
2022/06/01 15:42:51;;;;;;;68.75;49.90;;;;;;;19.89;55.89;100395.77;5144499;57;1134827;-73
2022/06/01 15:48:00;;;;;;;2.87;2.67;;;;;;;19.99;55.87;100388.30;5124409;57;1143110;-73
2022/06/01 15:53:05;;;;;;;1.60;1.47;;;;;;;19.89;54.99;100392.57;5116658;57;1138939;-69
2022/06/01 15:58:12;;;;;;;1.13;0.97;;;;;;;19.86;56.08;100376.02;5169387;56;1138926;-70
2022/06/01 16:03:17;;;;;;;2.93;1.87;;;;;;;19.89;56.46;100379.15;5050859;56;1139102;-70
2022/06/01 16:08:24;;;;;;;1.65;1.10;;;;;;;19.93;56.93;100375.09;5215936;56;1139023;-69
2022/06/01 16:13:29;;;;;;;6.10;1.27;;;;;;;20.02;56.98;100365.92;5210893;56;1138996;-72
2022/06/01 16:18:35;;;;;;;1.07;1.05;;;;;;;19.98;55.20;100366.50;5205483;56;1138934;-73
2022/06/01 16:23:41;;;;;;;3.98;3.67;;;;;;;19.85;54.87;100402.02;5181793;56;1138963;-73
2022/06/01 16:28:48;;;;;;;1.98;1.60;;;;;;;19.44;55.64;100410.87;5154499;56;1138991;-73
2022/06/01 16:33:54;;;;;;;1.75;1.65;;;;;;;19.38;56.95;100393.33;5194228;56;1138957;-72
2022/06/01 16:39:07;;;;;;;1.10;1.10;;;;;;;19.31;57.44;100388.67;5160926;56;1139012;-73
2022/06/01 16:44:23;;;;;;;2.37;2.17;;;;;;;19.16;56.55;100394.47;5162409;56;1139028;-73
2022/06/01 16:49:28;;;;;;;1.16;1.06;;;;;;;19.16;56.85;100401.17;5237354;55;1139086;-73
2022/06/01 16:54:35;;;;;;;1.80;1.70;;;;;;;19.02;56.21;100467.60;5270372;55;1139012;-73
2022/06/01 16:59:42;;;;;;;2.77;2.35;;;;;;;18.33;60.85;100498.61;5233093;56;1139006;-73
2022/06/01 17:04:47;;;;;;;3.92;3.10;;;;;;;18.08;62.28;100515.17;5213850;56;1138983;-73
2022/06/01 17:09:54;;;;;;;2.74;2.18;;;;;;;17.76;62.41;100516.48;5213758;56;1138955;-73
2022/06/01 17:15:04;;;;;;;3.12;2.72;;;;;;;17.47;61.75;100520.91;5219569;55;1138930;-73
2022/06/01 17:20:23;;;;;;;6.10;4.17;;;;;;;17.16;61.93;100532.17;5270434;55;1138971;-72
2022/06/01 17:25:29;;;;;;;2.67;2.53;;;;;;;16.78;63.63;100530.84;5305098;55;1138956;-72
2022/06/01 17:30:37;;;;;;;2.47;1.80;;;;;;;16.74;64.86;100525.97;5245045;55;1138999;-71
2022/06/01 17:35:43;;;;;;;3.60;2.93;;;;;;;16.83;65.13;100519.66;5220649;56;1139031;-72
2022/06/01 17:40:50;;;;;;;1.90;1.27;;;;;;;17.00;65.12;100532.60;5221367;56;1138981;-72
2022/06/01 17:45:56;;;;;;;7.72;5.28;;;;;;;17.03;64.84;100541.64;5290236;55;1139051;-72
2022/06/01 17:51:03;;;;;;;1.83;1.50;;;;;;;16.92;64.91;100553.45;5310651;55;1138932;-72
2022/06/01 17:56:25;;;;;;;9.73;7.27;;;;;;;16.90;65.33;100542.09;5292068;55;1138898;-72
2022/06/01 18:01:31;;;;;;;14.30;9.90;;;;;;;16.82;65.22;100540.69;5309670;55;1139202;-72
2022/06/01 18:06:39;;;;;;;7.97;5.53;;;;;;;16.77;65.54;100540.34;5266488;55;1141341;-72
2022/06/01 18:11:44;;;;;;;1.37;1.27;;;;;;;16.75;65.78;100537.83;5242663;56;1136917;-72
2022/06/01 18:16:50;;;;;;;7.57;2.70;;;;;;;16.73;65.79;100522.95;5242334;56;1137011;-72
2022/06/01 18:21:56;;;;;;;1.73;1.63;;;;;;;16.70;65.88;100524.11;5242516;55;1136895;-72
2022/06/01 18:27:06;;;;;;;2.40;1.50;;;;;;;16.69;66.06;100513.08;5242569;56;1137306;-72
2022/06/01 18:32:13;;;;;;;5.40;3.65;;;;;;;16.62;66.06;100520.03;5156228;56;1136879;-72
2022/06/01 18:37:19;;;;;;;5.93;5.20;;;;;;;16.60;66.26;100525.19;5207571;56;1136993;-73
2022/06/01 18:42:25;;;;;;;7.67;2.70;;;;;;;16.58;66.35;100517.33;5194370;56;1137012;-72
2022/06/01 18:47:30;;;;;;;3.27;2.37;;;;;;;16.56;66.48;100503.30;5209923;56;1136951;-74
2022/06/01 18:52:37;;;;;;;14.43;6.77;;;;;;;16.52;66.81;100507.27;5190769;56;1136917;-71
2022/06/01 18:57:42;;;;;;;23.97;11.03;;;;;;;16.38;66.80;100504.68;5210504;56;1138909;-73
2022/06/01 19:02:50;;;;;;;10.37;5.10;;;;;;;16.25;66.99;100507.42;5235826;56;1141073;-73
2022/06/01 19:07:57;;;;;;;4.87;2.90;;;;;;;16.03;67.39;100510.95;5222976;56;1138970;-73
2022/06/01 19:13:02;;;;;;;1.17;1.13;;;;;;;15.81;68.54;100518.08;5236642;56;1136934;-73
2022/06/01 19:18:10;;;;;;;17.57;8.83;;;;;;;15.74;68.77;100518.33;5206726;56;1136861;-73
2022/06/01 19:23:16;;;;;;;20.70;9.63;;;;;;;15.76;69.22;100517.19;5208518;56;1139141;-72
2022/06/01 19:28:26;;;;;;;22.40;10.13;;;;;;;15.64;69.39;100515.74;5185834;56;1139033;-72
2022/06/01 19:33:32;;;;;;;10.40;7.23;;;;;;;15.56;69.55;100510.84;5200817;56;1139014;-72
2022/06/01 19:44:07;;;;;;;6.03;2.42;;;;;;;15.29;70.20;100508.99;5199985;56;1141083;-72
2022/06/01 19:49:21;;;;;;;5.87;3.03;;;;;;;15.15;70.30;100518.33;5187003;56;1138958;-72
2022/06/01 19:54:27;;;;;;;7.13;3.73;;;;;;;15.10;70.73;100528.61;5216801;56;1138981;-71
2022/06/01 19:59:33;;;;;;;19.80;8.43;;;;;;;15.11;70.80;100532.95;5175322;56;1139299;-72
2022/06/01 20:04:40;;;;;;;37.80;15.57;;;;;;;15.08;71.41;100538.57;5187668;56;1141133;-73
2022/06/01 20:09:46;;;;;;;25.20;11.40;;;;;;;15.03;71.25;100551.48;5181431;56;1143145;-72
2022/06/01 20:14:56;;;;;;;17.93;11.80;;;;;;;15.01;71.43;100549.45;5169327;56;1143196;-72
2022/06/01 20:19:59;;;;;;;3.20;2.80;;;;;;;14.89;71.17;100559.45;5209269;56;1143060;-72
2022/06/01 20:25:07;;;;;;;3.27;2.60;;;;;;;14.77;71.65;100560.13;5155457;56;1139265;-71
2022/06/01 20:30:14;;;;;;;5.93;2.30;;;;;;;14.64;71.95;100563.61;5005516;58;1138950;-72
2022/06/01 20:35:22;;;;;;;3.20;2.37;;;;;;;14.52;72.27;100576.70;5154847;56;1139014;-72
2022/06/01 20:40:28;;;;;;;7.20;3.70;;;;;;;14.41;72.90;100587.03;5143816;55;1138993;-72
2022/06/01 20:45:33;;;;;;;12.07;5.63;;;;;;;14.41;73.79;100583.52;5164756;55;1138951;-71
2022/06/01 20:50:39;;;;;;;10.00;4.33;;;;;;;14.36;73.87;100581.77;5163730;56;1141068;-72
2022/06/01 20:55:45;;;;;;;8.67;5.43;;;;;;;14.22;74.16;100589.66;5171122;56;1141116;-72
2022/06/01 21:00:51;;;;;;;8.47;4.97;;;;;;;14.05;74.55;100591.72;5203433;56;1139258;-72
2022/06/01 21:05:58;;;;;;;7.00;4.27;;;;;;;14.04;75.15;100598.02;5216055;56;1138948;-71
2022/06/01 21:11:04;;;;;;;7.50;4.20;;;;;;;14.14;75.22;100592.69;5170004;56;1139021;-71
2022/06/01 21:16:13;;;;;;;4.53;3.40;;;;;;;14.12;75.04;100604.80;5130295;57;1139203;-72
2022/06/01 21:21:19;;;;;;;4.53;3.53;;;;;;;14.03;75.40;100608.30;5130367;57;1139244;-71
2022/06/01 21:26:26;;;;;;;4.70;3.27;;;;;;;13.91;75.54;100606.23;5135533;57;1139014;-71
2022/06/01 21:31:32;;;;;;;3.27;2.50;;;;;;;13.82;75.87;100611.06;5163647;56;1139298;-71
2022/06/01 21:36:37;;;;;;;3.53;2.60;;;;;;;13.71;75.90;100607.20;5134035;56;1138950;-71
2022/06/01 21:41:43;;;;;;;4.70;3.17;;;;;;;13.84;76.64;100598.97;5142266;56;1139284;-72
2022/06/01 21:46:49;;;;;;;6.90;4.53;;;;;;;13.98;76.65;100598.56;5224369;56;1139015;-71
2022/06/01 21:51:55;;;;;;;5.13;4.63;;;;;;;14.04;76.53;100592.20;5228203;56;1139117;-71
2022/06/01 21:57:01;;;;;;;4.50;4.00;;;;;;;14.05;76.28;100596.52;5185961;56;1138971;-71
2022/06/01 22:02:11;;;;;;;4.07;3.43;;;;;;;14.00;76.58;100584.15;5142659;56;1139519;-71
2022/06/01 22:07:17;;;;;;;5.07;2.60;;;;;;;14.05;76.98;100579.75;5140641;56;1138875;-72
2022/06/01 22:12:26;;;;;;;3.93;3.17;;;;;;;14.11;76.91;100579.66;5142734;56;1139381;-71
2022/06/01 22:17:31;;;;;;;4.17;2.65;;;;;;;14.08;76.28;100570.14;5142566;56;1138978;-71
2022/06/01 22:22:37;;;;;;;11.87;2.93;;;;;;;13.97;76.21;100573.78;5142658;56;1137141;-71
2022/06/01 22:27:44;;;;;;;3.50;3.20;;;;;;;14.00;76.51;100580.65;5153121;56;1139136;-72
2022/06/01 22:32:50;;;;;;;5.23;3.30;;;;;;;13.93;76.72;100575.52;5228711;55;1136937;-71
2022/06/01 22:37:56;;;;;;;5.10;3.33;;;;;;;13.78;76.60;100584.88;5172477;56;1137120;-72
2022/06/01 22:43:02;;;;;;;7.70;3.23;;;;;;;13.53;76.97;100591.56;5158013;56;1136884;-71
2022/06/01 22:48:14;;;;;;;5.57;3.40;;;;;;;13.45;77.62;100594.88;5225100;56;1137037;-71
2022/06/01 22:53:41;;;;;;;2.97;2.67;;;;;;;13.31;77.99;100598.76;5224095;56;1136805;-71
2022/06/01 22:58:43;;;;;;;3.72;2.75;;;;;;;13.19;78.19;100594.52;5151310;56;1137155;-71
2022/06/01 23:03:48;;;;;;;13.10;6.03;;;;;;;13.15;78.56;100616.16;5137738;57;1137116;-71
2022/06/01 23:08:54;;;;;;;4.23;2.90;;;;;;;13.13;78.67;100620.76;5211335;56;1138967;-71
2022/06/01 23:14:01;;;;;;;4.00;2.40;;;;;;;13.08;78.72;100625.12;5149210;56;1137342;-72
2022/06/01 23:19:07;;;;;;;3.08;2.15;;;;;;;13.00;79.08;100637.72;5142919;57;1136921;-72
2022/06/01 23:24:13;;;;;;;5.17;2.43;;;;;;;12.96;79.26;100627.52;5143024;57;1136963;-71
2022/06/01 23:29:29;;;;;;;3.23;2.33;;;;;;;12.97;79.95;100631.86;5143069;57;1134870;-72
2022/06/01 23:35:12;;;;;;;2.57;2.37;;;;;;;13.08;80.43;100628.27;5109124;57;1139162;-72
2022/06/01 23:40:42;;;;;;;2.90;2.60;;;;;;;13.22;80.51;100623.96;5227289;56;1139013;-72
2022/06/01 23:45:58;;;;;;;6.13;4.27;;;;;;;13.38;80.52;100633.61;5182899;56;1138965;-72
2022/06/01 23:51:09;;;;;;;2.73;2.53;;;;;;;13.37;80.18;100630.11;5233799;56;1138984;-71
2022/06/01 23:56:46;;;;;;;5.80;4.20;;;;;;;13.38;79.94;100626.97;5203386;56;1138994;-71
